Time;durP1;ratioP1;P1;durP2;ratioP2;P2;SDS_P1;SDS_P2;PMS_P1;PMS_P2;Temp;Humidity;BMP_temperature;BMP_pressure;BME280_temperature;BME280_humidity;BME280_pressure;Samples;Min_cycle;Max_cycle;Signal;HPM_P1;HPM_P2
2022/03/05 00:01:14;;;;;;;6.93;2.30;;;;;;;1.04;52.45;99075.25;5018583;28;20049;-60
2022/03/05 00:03:42;;;;;;;6.82;2.60;;;;;;;1.08;52.38;99085.34;5035834;28;20049;-60
2022/03/05 00:06:09;;;;;;;9.02;2.92;;;;;;;1.12;52.03;99085.56;5036052;28;20056;-59
2022/03/05 00:08:36;;;;;;;14.35;2.63;;;;;;;1.13;52.39;99077.09;5035608;28;20168;-58
2022/03/05 00:11:03;;;;;;;5.45;2.78;;;;;;;1.12;52.48;99075.44;5018631;28;20102;-60
2022/03/05 00:13:30;;;;;;;7.28;2.55;;;;;;;1.12;53.27;99080.09;5035372;28;20076;-61
2022/03/05 00:15:57;;;;;;;7.85;2.90;;;;;;;1.14;53.30;99073.25;5036141;28;20148;-60
2022/03/05 00:18:25;;;;;;;6.47;2.80;;;;;;;1.13;53.35;99066.13;5035410;28;20512;-60
2022/03/05 00:20:53;;;;;;;7.55;2.40;;;;;;;1.15;53.49;99071.31;5036035;28;20041;-60
2022/03/05 00:23:20;;;;;;;4.50;2.30;;;;;;;1.13;53.93;99071.59;5043580;28;20095;-62
2022/03/05 00:25:48;;;;;;;6.93;2.50;;;;;;;1.12;54.31;99061.75;5036304;28;20081;-60
2022/03/05 00:28:16;;;;;;;7.72;2.75;;;;;;;1.09;53.90;99059.59;5035363;28;20119;-60
2022/03/05 00:30:43;;;;;;;5.40;2.38;;;;;;;1.11;54.02;99062.88;5035993;28;20390;-60
2022/03/05 00:33:10;;;;;;;6.60;2.35;;;;;;;1.06;54.83;99068.38;5017174;28;20046;-60
2022/03/05 00:35:37;;;;;;;7.07;2.88;;;;;;;1.05;54.57;99063.19;5037518;28;20049;-59
2022/03/05 00:38:04;;;;;;;4.22;2.15;;;;;;;0.95;55.35;99055.03;5035992;28;20444;-60
2022/03/05 00:40:31;;;;;;;8.20;2.80;;;;;;;0.93;55.31;99055.31;5034935;28;20061;-61
2022/03/05 00:42:58;;;;;;;4.55;2.33;;;;;;;0.90;55.66;99066.81;5036056;28;20049;-58
2022/03/05 00:45:25;;;;;;;4.32;2.58;;;;;;;0.83;56.10;99066.28;5053620;28;20618;-60
2022/03/05 00:47:52;;;;;;;6.15;2.42;;;;;;;0.78;56.27;99063.59;5037285;28;20057;-60
2022/03/05 00:50:19;;;;;;;9.95;2.75;;;;;;;0.86;55.96;99071.22;5035415;28;20152;-63
2022/03/05 00:52:46;;;;;;;5.13;2.30;;;;;;;0.91;56.23;99079.41;5035644;28;20106;-64
2022/03/05 00:55:14;;;;;;;6.47;2.50;;;;;;;0.93;56.59;99077.22;5034815;28;20132;-63
2022/03/05 00:57:41;;;;;;;6.65;2.70;;;;;;;0.93;56.32;99079.13;5035233;28;20084;-61
2022/03/05 01:00:10;;;;;;;4.80;2.45;;;;;;;0.91;56.80;99079.41;5035275;28;20099;-60
2022/03/05 01:02:39;;;;;;;6.68;2.13;;;;;;;0.90;56.68;99077.78;5035211;28;20045;-64
2022/03/05 01:05:07;;;;;;;5.88;2.42;;;;;;;0.95;56.89;99069.50;5017583;28;20053;-66
2022/03/05 01:07:34;;;;;;;5.97;2.63;;;;;;;0.84;57.37;99078.91;5035384;28;20088;-65
2022/03/05 01:10:02;;;;;;;4.50;2.28;;;;;;;0.83;57.27;99076.44;5049394;28;20057;-66
2022/03/05 01:12:29;;;;;;;4.82;2.70;;;;;;;0.82;57.46;99085.75;5021969;28;20051;-65
2022/03/05 01:14:56;;;;;;;4.72;2.53;;;;;;;0.85;57.01;99080.53;5041000;28;20049;-66
2022/03/05 01:17:23;;;;;;;4.55;2.03;;;;;;;0.91;57.38;99082.13;5040983;28;20412;-62
2022/03/05 01:19:50;;;;;;;5.68;2.45;;;;;;;0.92;57.40;99080.22;5017436;28;20076;-61
2022/03/05 01:22:18;;;;;;;4.07;2.17;;;;;;;0.88;57.68;99074.50;5034688;28;20083;-61
2022/03/05 01:24:44;;;;;;;6.70;2.40;;;;;;;0.90;57.67;99075.03;5017004;28;20420;-61
2022/03/05 01:27:12;;;;;;;2.90;1.83;;;;;;;0.92;57.68;99077.50;5034571;28;20153;-62
2022/03/05 01:29:39;;;;;;;2.97;1.80;;;;;;;0.85;57.84;99074.22;5034849;28;20045;-61
2022/03/05 01:32:07;;;;;;;5.70;2.47;;;;;;;0.87;57.71;99072.88;5043804;28;20140;-62
2022/03/05 01:34:34;;;;;;;3.58;2.10;;;;;;;0.92;57.79;99069.28;5043317;28;20054;-62
2022/03/05 01:37:01;;;;;;;6.40;2.45;;;;;;;0.95;57.47;99077.72;5034596;28;20049;-61
2022/03/05 01:39:28;;;;;;;3.33;1.65;;;;;;;0.98;56.95;99062.69;5034566;28;20512;-62
2022/03/05 01:41:56;;;;;;;4.88;2.13;;;;;;;0.93;57.40;99055.31;5034286;28;20489;-62
2022/03/05 01:44:24;;;;;;;5.60;1.80;;;;;;;0.86;57.47;99065.72;5034613;28;20059;-61
2022/03/05 01:46:51;;;;;;;7.65;1.70;;;;;;;0.82;57.71;99067.41;5017245;28;20183;-62
2022/03/05 01:49:19;;;;;;;2.67;1.55;;;;;;;0.81;57.42;99073.16;5017386;28;20054;-61
2022/03/05 01:51:47;;;;;;;3.05;1.55;;;;;;;0.79;57.43;99069.88;5034184;28;20480;-62
2022/03/05 01:54:14;;;;;;;2.40;1.67;;;;;;;0.81;57.23;99074.00;5034308;28;20063;-61
2022/03/05 01:56:43;;;;;;;2.70;1.60;;;;;;;0.82;56.92;99070.13;5028323;28;20077;-61
2022/03/05 01:59:10;;;;;;;3.15;1.58;;;;;;;0.78;56.70;99080.03;5034147;28;20456;-66
2022/03/05 02:01:37;;;;;;;3.65;1.50;;;;;;;0.80;56.83;99072.34;5034262;28;20045;-62
2022/03/05 02:04:05;;;;;;;5.80;1.40;;;;;;;0.87;56.38;99074.78;5033502;28;20053;-62
2022/03/05 02:06:33;;;;;;;1.88;1.08;;;;;;;0.89;55.86;99073.38;5034318;28;20041;-61
2022/03/05 02:09:00;;;;;;;1.90;1.25;;;;;;;0.86;55.67;99082.16;5040151;28;20060;-63
2022/03/05 02:11:28;;;;;;;2.05;1.33;;;;;;;0.86;55.55;99079.41;5035056;28;20060;-62
2022/03/05 02:13:55;;;;;;;2.63;1.50;;;;;;;0.88;55.50;99073.66;5016206;28;20049;-63
2022/03/05 02:16:23;;;;;;;3.25;1.30;;;;;;;0.90;55.10;99072.31;5033894;28;20412;-62
2022/03/05 02:18:52;;;;;;;2.83;1.30;;;;;;;0.98;54.92;99079.91;5039389;28;20114;-60
2022/03/05 02:21:20;;;;;;;5.97;1.40;;;;;;;0.97;55.36;99077.44;5036536;28;20099;-60
2022/03/05 02:23:47;;;;;;;3.05;1.48;;;;;;;0.97;55.42;99075.53;5033170;28;20045;-61
2022/03/05 02:26:14;;;;;;;2.60;1.17;;;;;;;0.99;55.52;99083.47;5033604;28;20605;-61
2022/03/05 02:28:41;;;;;;;4.15;1.55;;;;;;;0.95;55.69;99075.00;5033323;28;20076;-62
2022/03/05 02:31:08;;;;;;;4.72;1.73;;;;;;;0.97;55.49;99078.28;5033478;28;20144;-62
2022/03/05 02:33:36;;;;;;;2.78;1.42;;;;;;;1.02;55.52;99085.66;5035832;28;20068;-62
2022/03/05 02:36:05;;;;;;;2.35;1.50;;;;;;;1.05;55.92;99087.81;5051298;28;20045;-62
2022/03/05 02:38:32;;;;;;;2.30;1.55;;;;;;;1.02;55.55;99081.00;5033091;28;20099;-62
2022/03/05 02:40:59;;;;;;;2.85;1.27;;;;;;;0.95;56.10;99085.94;5033705;28;20049;-61
2022/03/05 02:43:26;;;;;;;3.15;1.48;;;;;;;0.86;56.63;99076.69;5033213;28;20555;-61
2022/03/05 02:45:53;;;;;;;2.30;1.40;;;;;;;0.70;57.99;99083.34;5033236;28;20511;-61
2022/03/05 02:48:21;;;;;;;2.10;1.27;;;;;;;0.59;58.17;99078.19;5015953;28;20049;-66
2022/03/05 02:50:49;;;;;;;4.45;1.70;;;;;;;0.64;57.79;99084.44;5032783;28;20049;-65
2022/03/05 02:53:17;;;;;;;8.55;1.85;;;;;;;0.54;57.68;99084.50;5016029;28;20045;-65
2022/03/05 02:55:45;;;;;;;2.17;1.17;;;;;;;0.46;58.04;99087.81;5015331;28;20049;-64
2022/03/05 02:58:12;;;;;;;2.00;1.23;;;;;;;0.46;58.17;99074.13;5033734;28;20053;-65
2022/03/05 03:00:39;;;;;;;3.47;1.23;;;;;;;0.47;58.00;99078.47;5032630;28;20049;-65
2022/03/05 03:03:06;;;;;;;2.85;1.23;;;;;;;0.55;57.07;99086.13;5032829;28;20064;-65
2022/03/05 03:05:33;;;;;;;5.80;1.42;;;;;;;0.47;57.37;99083.16;5023259;28;20049;-66
2022/03/05 03:08:00;;;;;;;2.20;1.40;;;;;;;0.44;57.45;99083.72;5036056;28;20504;-66
2022/03/05 03:10:27;;;;;;;4.55;1.27;;;;;;;0.49;57.28;99091.88;5033184;28;20065;-65
2022/03/05 03:12:54;;;;;;;2.30;1.30;;;;;;;0.53;57.02;99093.00;5033203;28;20419;-65
2022/03/05 03:15:21;;;;;;;2.83;1.20;;;;;;;0.60;56.47;99091.59;5032779;28;20136;-66
2022/03/05 03:17:50;;;;;;;2.20;1.30;;;;;;;0.61;56.62;99095.97;5033187;28;20085;-66
2022/03/05 03:20:20;;;;;;;2.97;1.48;;;;;;;0.64;56.45;99095.41;5040347;28;20144;-65
2022/03/05 03:22:47;;;;;;;2.42;1.40;;;;;;;0.66;56.06;99086.91;5032994;28;20136;-66
2022/03/05 03:25:14;;;;;;;11.32;1.30;;;;;;;0.69;55.74;99092.66;5032223;28;20438;-65
2022/03/05 03:27:41;;;;;;;2.17;1.10;;;;;;;0.69;56.06;99087.19;5015004;28;20115;-65
2022/03/05 03:30:11;;;;;;;2.33;1.30;;;;;;;0.71;55.42;99095.91;5032566;28;20372;-65
2022/03/05 03:32:38;;;;;;;2.83;1.27;;;;;;;0.73;55.20;99095.63;5032369;28;20083;-65
2022/03/05 03:35:07;;;;;;;2.67;1.23;;;;;;;0.77;55.26;99099.47;5050196;28;20136;-61
2022/03/05 03:37:35;;;;;;;2.25;1.45;;;;;;;0.74;54.88;99094.56;5040180;28;20081;-61
2022/03/05 03:40:05;;;;;;;2.95;1.25;;;;;;;0.72;55.70;99107.69;5014709;28;20056;-61
2022/03/05 03:42:32;;;;;;;5.83;1.00;;;;;;;0.57;56.48;99091.31;5014974;28;20132;-61
2022/03/05 03:45:00;;;;;;;4.30;1.58;;;;;;;0.30;58.14;99116.31;5032532;28;20085;-62
2022/03/05 03:47:26;;;;;;;3.13;1.50;;;;;;;0.27;57.86;99111.38;5032488;28;20072;-62
2022/03/05 03:49:55;;;;;;;3.55;1.65;;;;;;;0.37;57.45;99116.81;5033158;28;20143;-61
2022/03/05 03:52:22;;;;;;;5.75;1.48;;;;;;;0.34;58.14;99111.91;5037298;28;20053;-61
2022/03/05 03:54:49;;;;;;;13.43;1.77;;;;;;;0.26;58.64;99117.94;5035439;28;20112;-62
2022/03/05 03:57:16;;;;;;;7.88;1.58;;;;;;;0.08;58.73;99118.50;5032920;28;20517;-60
2022/03/05 03:59:46;;;;;;;3.60;1.27;;;;;;;0.11;58.55;99123.44;5032354;28;20085;-59
2022/03/05 04:02:13;;;;;;;8.37;1.47;;;;;;;0.19;58.18;99130.25;5032053;28;20059;-60
2022/03/05 04:04:41;;;;;;;3.13;1.50;;;;;;;0.13;58.35;99125.88;5015142;28;20424;-60
2022/03/05 04:09:55;;;;;;;3.83;1.50;;;;;;;0.11;57.86;99134.38;5034580;28;20060;-60
2022/03/05 04:12:22;;;;;;;2.88;1.80;;;;;;;0.12;58.03;99130.56;5037401;28;20108;-61
2022/03/05 04:14:50;;;;;;;1.58;1.10;;;;;;;0.05;57.84;99134.66;5039363;28;20057;-60
2022/03/05 04:17:17;;;;;;;1.83;1.23;;;;;;;-0.12;58.05;99130.28;5041935;28;20057;-61
2022/03/05 04:19:44;;;;;;;7.03;1.50;;;;;;;-0.05;57.78;99143.69;5041155;28;20079;-61
2022/03/05 04:22:11;;;;;;;3.60;1.50;;;;;;;0.03;57.53;99145.03;5042578;28;20049;-58
2022/03/05 04:24:38;;;;;;;1.73;1.00;;;;;;;0.10;57.38;99134.63;5040597;28;20075;-60
2022/03/05 04:27:06;;;;;;;2.38;1.23;;;;;;;0.05;57.10;99148.34;5051967;28;20136;-60
2022/03/05 04:29:33;;;;;;;5.05;1.25;;;;;;;-0.07;57.19;99152.16;5039494;28;20045;-60
2022/03/05 04:32:00;;;;;;;3.75;1.20;;;;;;;-0.07;57.18;99159.53;5044013;28;20056;-59
2022/03/05 04:34:28;;;;;;;3.58;1.35;;;;;;;0.01;56.93;99156.25;5047464;28;20053;-59
2022/03/05 04:36:55;;;;;;;2.17;1.08;;;;;;;0.04;56.50;99158.44;5026757;28;20478;-59
2022/03/05 04:39:21;;;;;;;6.55;1.42;;;;;;;0.02;56.66;99163.34;5039257;28;20061;-60
2022/03/05 04:41:48;;;;;;;2.97;1.30;;;;;;;-0.03;56.78;99155.97;5051563;28;20051;-60
2022/03/05 04:44:15;;;;;;;2.88;1.52;;;;;;;-0.06;56.52;99174.81;5048447;28;20455;-61
2022/03/05 04:46:43;;;;;;;7.25;1.60;;;;;;;-0.11;56.70;99161.97;5042961;28;20454;-60
2022/03/05 04:49:14;;;;;;;2.75;1.42;;;;;;;-0.08;56.93;99160.63;5039338;28;20049;-62
2022/03/05 04:51:41;;;;;;;2.53;1.45;;;;;;;-0.21;57.10;99169.34;5042337;28;20052;-59
2022/03/05 04:54:08;;;;;;;0.82;0.80;;;;;;;-0.33;57.43;99172.34;5022120;28;20061;-59
2022/03/05 04:56:36;;;;;;;2.80;1.55;;;;;;;-0.41;57.54;99178.34;5041544;28;20041;-60
2022/03/05 04:59:04;;;;;;;3.33;1.60;;;;;;;-0.36;57.43;99183.81;5040373;28;20084;-61
2022/03/05 05:01:32;;;;;;;2.05;1.35;;;;;;;-0.23;57.25;99194.22;5041071;28;20171;-58
2022/03/05 05:03:59;;;;;;;2.42;1.52;;;;;;;-0.14;56.71;99187.13;5041259;28;20049;-61
2022/03/05 05:06:26;;;;;;;3.88;1.77;;;;;;;-0.09;56.62;99184.41;5047428;28;20076;-60
2022/03/05 05:08:53;;;;;;;2.45;1.35;;;;;;;-0.04;56.57;99187.16;5035414;28;20081;-62
2022/03/05 05:11:20;;;;;;;1.92;1.10;;;;;;;0.03;56.30;99189.63;5040578;28;20137;-61
2022/03/05 05:13:47;;;;;;;7.35;1.45;;;;;;;-0.13;56.63;99187.94;5034249;28;20049;-60
2022/03/05 05:16:14;;;;;;;2.17;1.70;;;;;;;-0.34;57.00;99195.31;5033063;28;20045;-58
2022/03/05 05:19:24;;;;;;;3.78;1.38;;;;;;;-0.35;56.89;99196.38;5033294;28;20052;-59
2022/03/05 05:21:28;;;;;;;2.08;1.35;;;;;;;-0.27;56.90;99206.78;5034646;28;20468;-61
2022/03/05 05:23:56;;;;;;;2.58;1.50;;;;;;;-0.23;56.70;99202.41;5034350;28;20060;-60
2022/03/05 05:26:23;;;;;;;2.38;1.30;;;;;;;-0.14;57.00;99200.00;5034484;28;20133;-60
2022/03/05 05:28:50;;;;;;;3.22;1.60;;;;;;;-0.20;56.33;99204.59;5036696;28;20083;-60
2022/03/05 05:31:17;;;;;;;3.58;1.88;;;;;;;-0.13;56.67;99209.81;5040390;28;20049;-60
2022/03/05 05:33:45;;;;;;;5.95;1.77;;;;;;;-0.06;56.32;99204.91;5050772;28;20072;-61
2022/03/05 05:36:13;;;;;;;3.65;1.60;;;;;;;-0.06;56.21;99210.34;5040746;28;20134;-61
2022/03/05 05:38:40;;;;;;;5.53;1.77;;;;;;;-0.09;56.05;99206.28;5034689;28;20140;-61
2022/03/05 05:41:08;;;;;;;2.67;1.45;;;;;;;0.02;56.02;99207.09;5034211;28;20076;-59
2022/03/05 05:43:35;;;;;;;3.22;1.90;;;;;;;-0.09;56.21;99197.25;5048440;28;20055;-62
2022/03/05 05:46:02;;;;;;;4.70;1.73;;;;;;;-0.14;56.73;99210.91;5045932;28;20045;-62
2022/03/05 05:48:49;;;;;;;2.67;1.20;;;;;;;-0.15;56.29;99199.16;5034248;28;20061;-60
2022/03/05 05:51:16;;;;;;;5.97;1.48;;;;;;;-0.22;56.76;99214.19;5034290;28;20053;-62
2022/03/05 05:53:43;;;;;;;4.13;1.80;;;;;;;-0.22;56.63;99212.28;5045454;28;20582;-62
2022/03/05 05:56:10;;;;;;;3.67;1.25;;;;;;;-0.13;56.72;99207.91;5040948;28;20045;-60
2022/03/05 05:58:37;;;;;;;2.67;1.65;;;;;;;-0.23;56.97;99209.81;5045330;28;20053;-61
2022/03/05 06:01:05;;;;;;;6.18;1.85;;;;;;;-0.23;56.99;99220.75;5043517;28;20048;-61
2022/03/05 06:03:33;;;;;;;6.90;1.67;;;;;;;-0.16;56.88;99221.28;5040137;28;20056;-61
2022/03/05 06:06:05;;;;;;;2.05;1.17;;;;;;;-0.28;57.28;99226.19;5040012;28;20033;-61
2022/03/05 06:08:32;;;;;;;4.10;1.60;;;;;;;-0.24;57.27;99225.38;5039884;28;20052;-61
2022/03/05 06:11:00;;;;;;;3.15;1.73;;;;;;;-0.10;57.13;99221.03;5045901;28;20052;-60
2022/03/05 06:13:27;;;;;;;5.70;2.33;;;;;;;0.04;56.53;99218.59;5045036;28;20501;-60
2022/03/05 06:15:54;;;;;;;4.53;1.88;;;;;;;0.04;56.57;99213.13;5049332;28;20095;-60
2022/03/05 06:18:20;;;;;;;5.68;1.77;;;;;;;-0.09;56.64;99228.13;5041050;28;20059;-61
2022/03/05 06:20:50;;;;;;;5.13;1.70;;;;;;;-0.10;56.68;99226.50;5044313;28;20041;-60
2022/03/05 06:23:18;;;;;;;7.63;1.77;;;;;;;-0.01;56.73;99224.03;5043888;28;20067;-59
2022/03/05 06:25:45;;;;;;;6.15;2.17;;;;;;;-0.05;56.63;99223.75;5038964;28;20069;-61
2022/03/05 06:28:12;;;;;;;2.53;1.58;;;;;;;-0.03;56.68;99221.59;5048119;28;20568;-60
2022/03/05 06:30:39;;;;;;;3.25;2.00;;;;;;;0.02;56.69;99223.50;5041984;28;20500;-61
2022/03/05 06:33:06;;;;;;;4.28;2.10;;;;;;;0.06;56.57;99224.63;5050405;28;20052;-61
2022/03/05 06:35:34;;;;;;;2.70;1.73;;;;;;;0.18;56.30;99222.44;5043975;28;20120;-60
2022/03/05 06:38:01;;;;;;;18.88;2.25;;;;;;;0.44;55.43;99225.97;5032415;28;20045;-61
2022/03/05 06:40:28;;;;;;;4.95;1.48;;;;;;;0.33;55.35;99227.91;5050211;28;20484;-62
2022/03/05 06:42:55;;;;;;;7.78;1.70;;;;;;;0.30;55.43;99224.88;5051567;28;20507;-61
2022/03/05 06:45:22;;;;;;;17.70;1.95;;;;;;;0.39;55.37;99240.47;5043989;28;20045;-61
2022/03/05 06:47:49;;;;;;;6.15;1.88;;;;;;;0.36;55.08;99232.00;5040186;28;20108;-61
2022/03/05 06:50:16;;;;;;;3.15;1.58;;;;;;;0.57;55.30;99230.88;5036906;28;20083;-60
2022/03/05 06:52:43;;;;;;;3.30;1.42;;;;;;;0.54;54.87;99240.47;5045972;28;20068;-60
2022/03/05 06:55:14;;;;;;;9.75;1.92;;;;;;;0.33;55.14;99246.22;5036107;28;20048;-62
2022/03/05 06:57:44;;;;;;;14.68;2.15;;;;;;;0.16;55.54;99245.66;5037344;28;20045;-60
2022/03/05 07:00:13;;;;;;;8.98;2.92;;;;;;;0.27;55.50;99253.63;5048369;28;20488;-59
2022/03/05 07:02:41;;;;;;;7.45;2.55;;;;;;;0.51;54.61;99251.97;5047858;28;20044;-60
2022/03/05 07:05:09;;;;;;;5.93;2.05;;;;;;;0.64;54.28;99239.63;5039136;28;20057;-61
2022/03/05 07:07:37;;;;;;;4.93;2.42;;;;;;;0.62;54.26;99245.38;5032232;28;20059;-61
2022/03/05 07:10:05;;;;;;;4.65;1.92;;;;;;;0.67;53.99;99248.09;5042689;28;20061;-60
2022/03/05 07:12:33;;;;;;;6.47;1.83;;;;;;;0.54;54.09;99245.94;5035903;28;20087;-60
2022/03/05 07:15:04;;;;;;;5.15;1.98;;;;;;;0.83;53.78;99252.44;5032090;28;20405;-61
2022/03/05 07:17:32;;;;;;;7.28;2.30;;;;;;;1.26;52.68;99246.31;5039057;28;20127;-61
2022/03/05 07:19:59;;;;;;;7.50;2.60;;;;;;;1.95;51.34;99248.97;5046033;28;20558;-61
2022/03/05 07:22:26;;;;;;;3.90;2.22;;;;;;;2.27;49.95;99232.03;5036977;28;20179;-61
2022/03/05 07:24:53;;;;;;;2.03;1.25;;;;;;;2.89;48.26;99243.00;5048578;28;20049;-61
2022/03/05 07:27:19;;;;;;;5.03;1.92;;;;;;;3.65;47.27;99241.03;5044404;28;20041;-60
2022/03/05 07:29:46;;;;;;;3.50;1.45;;;;;;;4.22;45.40;99240.75;5043851;28;20068;-60
2022/03/05 07:32:14;;;;;;;7.28;1.80;;;;;;;3.97;45.86;99243.06;5044134;28;20050;-60
2022/03/05 07:34:41;;;;;;;3.90;1.83;;;;;;;4.16;45.40;99247.44;5050046;28;20056;-60
2022/03/05 07:37:08;;;;;;;5.63;1.70;;;;;;;3.69;46.27;99242.06;5036547;28;20459;-61
2022/03/05 07:39:35;;;;;;;5.28;1.67;;;;;;;3.26;46.65;99232.97;5029413;28;20566;-59
2022/03/05 07:42:03;;;;;;;27.85;4.25;;;;;;;2.93;46.71;99239.38;5045893;28;20500;-60
2022/03/05 07:44:31;;;;;;;3.85;2.05;;;;;;;2.80;47.60;99233.75;5048101;28;20571;-59
2022/03/05 07:46:59;;;;;;;5.60;1.83;;;;;;;2.85;47.65;99236.44;5037420;28;20663;-60
2022/03/05 07:49:26;;;;;;;14.57;2.10;;;;;;;2.71;47.47;99240.97;5041351;28;20555;-60
2022/03/05 07:51:56;;;;;;;3.03;1.42;;;;;;;2.64;47.85;99246.00;5052454;28;21252;-59
2022/03/05 07:54:24;;;;;;;4.63;1.50;;;;;;;3.04;47.03;99237.34;5049868;28;20045;-60
2022/03/05 07:56:51;;;;;;;3.67;1.92;;;;;;;3.04;46.85;99232.69;5049900;28;20406;-60
2022/03/05 07:59:18;;;;;;;4.93;2.38;;;;;;;3.63;46.03;99232.22;5050193;28;20550;-60
2022/03/05 08:01:46;;;;;;;10.02;1.95;;;;;;;4.13;44.96;99225.19;5048882;28;20056;-61
2022/03/05 08:04:13;;;;;;;5.50;1.50;;;;;;;3.26;45.10;99243.16;5026124;28;20056;-59
2022/03/05 08:06:40;;;;;;;3.58;1.83;;;;;;;2.79;46.77;99237.63;5040363;28;20071;-59
2022/03/05 08:09:07;;;;;;;9.02;3.15;;;;;;;2.58;47.34;99237.00;5046376;28;20053;-61
2022/03/05 08:11:35;;;;;;;2.70;1.48;;;;;;;2.46;47.12;99238.47;5018456;28;20049;-61
2022/03/05 08:14:01;;;;;;;8.25;2.03;;;;;;;2.40;46.81;99242.38;5047050;28;20423;-59
2022/03/05 08:16:31;;;;;;;4.07;1.52;;;;;;;2.75;46.23;99244.81;5035390;28;20471;-61
2022/03/05 08:19:00;;;;;;;5.05;2.08;;;;;;;3.59;44.90;99247.69;5035066;28;20057;-59
2022/03/05 08:21:27;;;;;;;4.00;1.80;;;;;;;4.26;43.88;99247.28;5040517;28;20042;-58
2022/03/05 08:23:56;;;;;;;7.97;1.92;;;;;;;3.93;44.16;99247.53;5051050;28;20495;-60
2022/03/05 08:26:24;;;;;;;3.67;1.95;;;;;;;3.33;44.88;99243.63;5042293;28;20056;-60
2022/03/05 08:28:51;;;;;;;5.20;2.17;;;;;;;2.56;46.47;99261.16;5041057;28;20053;-60
2022/03/05 08:31:18;;;;;;;7.85;2.35;;;;;;;2.20;46.77;99265.28;5043138;28;20508;-61
2022/03/05 08:33:46;;;;;;;6.78;2.50;;;;;;;1.99;47.63;99273.94;5039583;28;20048;-61
2022/03/05 08:36:13;;;;;;;5.85;2.13;;;;;;;2.01;47.22;99272.53;5044030;28;20053;-61
2022/03/05 08:38:40;;;;;;;9.15;2.60;;;;;;;1.80;47.46;99266.34;5043653;28;20467;-61
2022/03/05 08:41:08;;;;;;;6.63;2.00;;;;;;;1.52;48.18;99272.53;5034957;28;20057;-60
2022/03/05 08:43:36;;;;;;;8.02;2.92;;;;;;;1.57;48.22;99275.22;5035638;28;20059;-60
2022/03/05 08:46:05;;;;;;;6.38;2.58;;;;;;;1.41;48.75;99273.66;5035210;28;20056;-60
2022/03/05 08:48:32;;;;;;;8.00;2.60;;;;;;;1.30;48.79;99274.78;5035575;28;20041;-58
2022/03/05 08:51:00;;;;;;;5.78;2.45;;;;;;;1.23;48.34;99277.03;5034797;28;20111;-61
2022/03/05 08:53:27;;;;;;;9.88;2.58;;;;;;;1.17;48.84;99275.41;5035358;28;20049;-60
2022/03/05 08:55:55;;;;;;;4.88;2.20;;;;;;;0.95;49.49;99272.13;5037884;28;20369;-62
2022/03/05 08:58:23;;;;;;;4.22;2.00;;;;;;;0.87;49.82;99274.63;5052469;28;20463;-60
2022/03/05 09:00:50;;;;;;;5.60;2.35;;;;;;;0.87;49.89;99261.78;5042408;28;20084;-59
2022/03/05 09:03:18;;;;;;;8.50;2.75;;;;;;;0.77;50.16;99275.47;5035139;28;20455;-60
2022/03/05 09:05:46;;;;;;;7.63;2.38;;;;;;;0.80;50.36;99269.44;5047121;28;20061;-60
2022/03/05 09:08:14;;;;;;;7.72;1.98;;;;;;;0.99;49.82;99286.94;5034889;28;20060;-61
2022/03/05 09:10:42;;;;;;;2.05;1.48;;;;;;;1.09;49.68;99278.69;5047571;28;20465;-61
2022/03/05 09:13:09;;;;;;;5.25;2.22;;;;;;;1.04;49.47;99283.38;5035022;28;20118;-60
2022/03/05 09:15:36;;;;;;;5.22;2.17;;;;;;;0.93;49.99;99282.56;5035079;28;20127;-60
2022/03/05 09:18:03;;;;;;;5.97;2.47;;;;;;;1.13;49.75;99284.44;5034769;28;20140;-61
2022/03/05 09:20:31;;;;;;;16.60;2.53;;;;;;;1.43;49.23;99292.56;5035145;28;20061;-60
2022/03/05 09:22:58;;;;;;;4.80;2.08;;;;;;;1.24;49.46;99286.88;5044791;28;20140;-59
2022/03/05 09:25:25;;;;;;;2.20;1.27;;;;;;;0.99;50.06;99284.19;5038955;28;20584;-59
2022/03/05 09:27:52;;;;;;;6.78;2.30;;;;;;;0.84;50.75;99305.31;5043144;28;20111;-61
2022/03/05 09:30:20;;;;;;;3.65;1.83;;;;;;;0.83;50.42;99309.94;5034449;28;20065;-60
2022/03/05 09:32:48;;;;;;;5.28;2.30;;;;;;;0.91;50.58;99290.22;5034110;28;20076;-60
2022/03/05 09:35:15;;;;;;;3.85;1.95;;;;;;;0.99;49.85;99300.63;5047214;28;20061;-61
2022/03/05 09:37:42;;;;;;;5.13;1.88;;;;;;;1.02;49.74;99305.56;5033874;28;20056;-59
2022/03/05 09:40:11;;;;;;;4.03;1.60;;;;;;;0.92;49.61;99304.75;5033934;28;20111;-60
2022/03/05 09:42:45;;;;;;;8.45;2.38;;;;;;;0.89;50.06;99308.03;5033880;28;20077;-60
2022/03/05 09:45:13;;;;;;;4.63;1.52;;;;;;;0.74;49.99;99303.38;5034168;28;20060;-59
2022/03/05 09:47:42;;;;;;;16.25;3.05;;;;;;;0.77;50.31;99315.72;5034349;28;20050;-59
2022/03/05 09:50:10;;;;;;;13.55;2.35;;;;;;;0.64;50.16;99319.81;5016521;28;20081;-60
2022/03/05 09:52:38;;;;;;;5.25;1.85;;;;;;;0.62;50.37;99318.47;5033671;28;20572;-60
2022/03/05 09:55:06;;;;;;;9.55;2.45;;;;;;;0.79;50.16;99322.56;5034045;28;20526;-60
2022/03/05 09:57:33;;;;;;;4.32;1.70;;;;;;;0.94;49.50;99318.97;5023980;28;20049;-61
2022/03/05 10:00:01;;;;;;;6.90;2.33;;;;;;;1.03;49.57;99326.34;5033819;28;20136;-61
2022/03/05 10:02:29;;;;;;;7.57;2.08;;;;;;;1.14;49.68;99314.31;5046087;28;20049;-61
2022/03/05 10:05:26;;;;;;;4.47;1.98;;;;;;;1.15;49.27;99329.63;5033684;28;20504;-60
2022/03/05 10:08:07;;;;;;;4.47;1.85;;;;;;;1.16;49.22;99317.56;5029837;28;20056;-60
2022/03/05 10:10:48;;;;;;;7.72;2.28;;;;;;;1.20;48.78;99334.28;5045495;28;20060;-59
2022/03/05 10:13:18;;;;;;;;;;;;;;;0.93;49.40;99326.38;5050664;28;20435;-59
2022/03/05 10:15:46;;;;;;;4.45;1.63;;;;;;;0.74;49.60;99325.28;5034027;28;19931;-61
2022/03/05 10:18:14;;;;;;;4.22;2.00;;;;;;;0.76;49.88;99333.22;5033193;28;20045;-61
2022/03/05 10:20:53;;;;;;;4.85;2.42;;;;;;;0.71;49.81;99333.25;5034260;28;20140;-62
2022/03/05 10:23:21;;;;;;;10.70;2.55;;;;;;;0.58;50.45;99331.84;5051886;28;21046;-62
2022/03/05 10:25:50;;;;;;;5.70;2.42;;;;;;;0.46;50.93;99327.75;5046137;28;20085;-60
2022/03/05 10:28:18;;;;;;;5.82;1.90;;;;;;;0.41;51.38;99330.50;5033481;28;20053;-62
2022/03/05 10:31:02;;;;;;;6.20;2.30;;;;;;;0.36;51.30;99335.94;5033225;28;20432;-62
2022/03/05 10:33:38;;;;;;;16.00;2.03;;;;;;;0.44;51.28;99319.00;5033206;28;20060;-61
2022/03/05 10:36:16;;;;;;;7.10;2.00;;;;;;;0.49;51.11;99341.72;5041250;28;20050;-61
2022/03/05 10:39:02;;;;;;;3.45;2.22;;;;;;;0.60;51.02;99337.06;5033040;28;20074;-60
2022/03/05 10:41:35;;;;;;;3.38;2.22;;;;;;;0.56;51.03;99342.25;5033524;28;20049;-61
2022/03/05 10:44:15;;;;;;;4.28;1.60;;;;;;;0.48;51.44;99342.81;5033107;28;20060;-61
2022/03/05 10:46:45;;;;;;;5.45;2.47;;;;;;;0.41;51.72;99338.69;5033611;28;20468;-62
2022/03/05 10:49:20;;;;;;;7.77;2.63;;;;;;;0.45;51.55;99343.34;5044985;28;20049;-60
2022/03/05 10:51:49;;;;;;;7.93;3.50;;;;;;;0.52;51.52;99343.91;5033709;28;20049;-61
2022/03/05 10:54:31;;;;;;;7.00;3.25;;;;;;;0.67;51.34;99346.66;5032833;28;20080;-60
2022/03/05 10:57:22;;;;;;;4.72;2.42;;;;;;;0.70;51.29;99337.88;5042609;28;20135;-60
2022/03/05 10:59:52;;;;;;;4.10;2.00;;;;;;;0.64;51.44;99336.25;5037281;28;20144;-62
2022/03/05 11:02:21;;;;;;;10.70;2.27;;;;;;;0.55;51.65;99343.34;5034502;28;20076;-60
2022/03/05 11:04:50;;;;;;;6.13;2.33;;;;;;;0.62;51.49;99335.69;5032477;28;20050;-61
2022/03/05 11:07:18;;;;;;;4.82;2.10;;;;;;;0.63;52.04;99339.25;5033232;28;20041;-61
2022/03/05 11:09:47;;;;;;;10.40;2.22;;;;;;;0.58;51.62;99342.81;5032175;28;20184;-60
2022/03/05 11:12:20;;;;;;;10.20;2.20;;;;;;;0.78;51.69;99339.25;5033241;28;20501;-62
2022/03/05 11:14:49;;;;;;;2.33;1.60;;;;;;;0.95;51.09;99337.06;5032457;28;20107;-61
2022/03/05 11:17:17;;;;;;;9.65;1.77;;;;;;;1.07;50.60;99338.38;5033209;28;20061;-62
2022/03/05 11:19:45;;;;;;;3.42;2.10;;;;;;;1.05;50.18;99331.56;5032605;28;20099;-60
2022/03/05 11:22:16;;;;;;;8.82;2.05;;;;;;;1.08;50.63;99336.47;5015172;28;20495;-60
2022/03/05 11:24:44;;;;;;;;;;;;;;;0.87;50.83;99330.22;5035736;28;20045;-61
2022/03/05 11:27:15;;;;;;;12.73;1.98;;;;;;;0.89;51.25;99335.44;5037017;28;19928;-62
2022/03/05 11:29:59;;;;;;;8.05;2.00;;;;;;;0.92;51.38;99341.16;5036612;28;20152;-61
2022/03/05 11:32:35;;;;;;;13.68;1.83;;;;;;;0.99;51.48;99338.97;5019626;28;20116;-62
2022/03/05 11:35:19;;;;;;;9.82;2.35;;;;;;;0.88;51.12;99340.06;5038392;28;20049;-61
2022/03/05 11:37:47;;;;;;;4.00;1.67;;;;;;;0.77;51.41;99332.94;5048034;28;20063;-61
2022/03/05 11:40:35;;;;;;;2.88;1.60;;;;;;;0.76;51.69;99344.16;5019234;28;20077;-61
2022/03/05 11:43:15;;;;;;;5.85;2.20;;;;;;;0.84;51.27;99347.19;5044808;28;20064;-62
2022/03/05 11:45:56;;;;;;;7.00;2.13;;;;;;;0.99;51.29;99344.44;5036608;28;20053;-60
2022/03/05 11:48:24;;;;;;;3.58;1.73;;;;;;;0.96;50.96;99352.38;5036437;28;20724;-60
2022/03/05 11:50:53;;;;;;;4.47;2.17;;;;;;;0.87;51.56;99346.66;5036185;28;20084;-61